Time;durP1;ratioP1;P1;durP2;ratioP2;P2;SDS_P1;SDS_P2;PMS_P1;PMS_P2;Temp;Humidity;BMP_temperature;BMP_pressure;BME280_temperature;BME280_humidity;BME280_pressure;Samples;Min_cycle;Max_cycle;Signal;HPM_P1;HPM_P2
2021/12/27 00:00:18;;;;;;;16.45;9.80;;;;;;;-3.46;100.00;99762.56;6277190;28;20136;-89
2021/12/27 00:03:21;;;;;;;17.67;9.65;;;;;;;-3.47;100.00;99758.38;6284556;28;20047;-90
2021/12/27 00:06:23;;;;;;;19.65;10.80;;;;;;;-3.43;100.00;99757.38;6285028;28;20083;-89
2021/12/27 00:09:25;;;;;;;17.00;11.48;;;;;;;-3.42;100.00;99761.59;6301877;28;20048;-89
2021/12/27 00:12:27;;;;;;;17.73;10.75;;;;;;;-3.43;100.00;99754.84;6273280;28;20131;-89
2021/12/27 00:15:30;;;;;;;18.05;10.43;;;;;;;-3.39;100.00;99756.41;6279572;28;20043;-89
2021/12/27 00:18:32;;;;;;;17.90;10.57;;;;;;;-3.39;100.00;99746.28;6277825;28;20043;-89
2021/12/27 00:21:34;;;;;;;17.85;10.73;;;;;;;-3.35;100.00;99741.97;6296701;28;20052;-89
2021/12/27 00:24:36;;;;;;;19.55;12.00;;;;;;;-3.34;100.00;99734.31;6304067;28;20048;-90
2021/12/27 00:27:39;;;;;;;17.52;10.35;;;;;;;-3.27;100.00;99722.28;6301724;28;20133;-90
2021/12/27 00:30:41;;;;;;;17.75;9.93;;;;;;;-3.28;100.00;99716.41;6298198;28;20553;-90
2021/12/27 00:33:43;;;;;;;17.83;10.15;;;;;;;-3.23;100.00;99705.28;6302611;28;20071;-90
2021/12/27 00:36:45;;;;;;;17.63;10.00;;;;;;;-3.25;100.00;99703.63;6288993;28;20044;-90
2021/12/27 00:39:47;;;;;;;18.52;10.63;;;;;;;-3.25;100.00;99696.03;6306637;28;20041;-89
2021/12/27 00:42:50;;;;;;;20.17;10.90;;;;;;;-3.25;100.00;99696.03;6307765;28;20047;-90
2021/12/27 00:45:52;;;;;;;17.65;10.43;;;;;;;-3.20;100.00;99690.00;6312883;28;20036;-89
2021/12/27 00:48:55;;;;;;;20.25;10.25;;;;;;;-3.22;100.00;99684.16;6298537;28;20105;-89
2021/12/27 00:51:57;;;;;;;17.92;10.50;;;;;;;-3.27;100.00;99686.84;6308637;28;20048;-90
2021/12/27 00:54:59;;;;;;;23.85;10.93;;;;;;;-3.29;100.00;99684.38;6277509;28;20299;-90
2021/12/27 00:58:01;;;;;;;20.55;10.77;;;;;;;-3.33;100.00;99687.91;6303364;28;20492;-90
2021/12/27 01:01:04;;;;;;;19.98;12.15;;;;;;;-3.41;100.00;99682.28;6287286;28;20053;-90
2021/12/27 01:04:06;;;;;;;21.83;11.52;;;;;;;-3.42;100.00;99678.09;6279386;28;20044;-90
2021/12/27 01:07:09;;;;;;;16.58;10.00;;;;;;;-3.46;100.00;99679.06;6300477;28;20090;-90
2021/12/27 01:16:40;;;;;;;19.55;11.25;;;;;;;-3.58;100.00;99660.09;6294229;28;20044;-90
2021/12/27 01:19:42;;;;;;;21.35;11.15;;;;;;;-3.51;100.00;99655.66;6294568;28;20049;-90
2021/12/27 01:22:44;;;;;;;20.10;11.38;;;;;;;-3.45;100.00;99652.91;6309970;28;20083;-89
2021/12/27 01:25:46;;;;;;;15.45;10.25;;;;;;;-3.36;100.00;99659.34;6305901;28;20044;-90
2021/12/27 01:28:48;;;;;;;23.77;12.30;;;;;;;-3.37;100.00;99657.69;6309191;28;20046;-89
2021/12/27 01:31:50;;;;;;;21.13;11.93;;;;;;;-3.37;100.00;99661.06;6285728;28;20029;-90
2021/12/27 01:34:52;;;;;;;22.30;11.30;;;;;;;-3.45;100.00;99652.91;6288482;28;20052;-89
2021/12/27 01:37:55;;;;;;;17.38;10.88;;;;;;;-3.44;100.00;99662.16;6293913;28;20130;-90
2021/12/27 01:40:57;;;;;;;23.10;12.82;;;;;;;-3.35;100.00;99655.94;6309252;28;20032;-90
2021/12/27 01:44:00;;;;;;;19.80;11.23;;;;;;;-3.28;100.00;99654.81;6300388;28;20047;-89
2021/12/27 01:47:02;;;;;;;18.25;10.73;;;;;;;-3.26;100.00;99658.13;6303688;28;20095;-89
2021/12/27 01:50:05;;;;;;;19.77;11.38;;;;;;;-3.29;100.00;99656.53;6292725;28;20051;-90
2021/12/27 01:53:10;;;;;;;20.80;11.75;;;;;;;-3.21;100.00;99655.44;6305189;28;20044;-89
2021/12/27 01:56:14;;;;;;;21.10;11.25;;;;;;;-3.20;100.00;99650.34;6306772;28;20143;-90
2021/12/27 01:59:16;;;;;;;21.77;12.00;;;;;;;-3.21;100.00;99647.84;6292535;28;20170;-89
2021/12/27 02:02:18;;;;;;;18.08;11.45;;;;;;;-3.21;100.00;99642.78;6310328;28;20062;-90
2021/12/27 02:05:21;;;;;;;17.00;10.70;;;;;;;-3.18;100.00;99645.19;6297561;28;20474;-90
2021/12/27 02:08:39;;;;;;;19.85;11.20;;;;;;;-3.14;100.00;99639.97;6276903;28;20478;-90
2021/12/27 02:11:42;;;;;;;17.70;10.63;;;;;;;-3.14;100.00;99639.16;6278696;28;20815;-90
2021/12/27 02:14:44;;;;;;;19.95;10.18;;;;;;;-3.13;100.00;99640.78;6304947;28;20040;-90
2021/12/27 02:17:54;;;;;;;16.05;10.70;;;;;;;-3.10;100.00;99631.38;6310932;28;20052;-90
2021/12/27 02:20:56;;;;;;;19.50;11.43;;;;;;;-3.06;100.00;99637.16;6303989;28;20044;-90
2021/12/27 02:23:59;;;;;;;18.73;11.18;;;;;;;-3.06;100.00;99630.38;6311165;28;20048;-90
2021/12/27 02:27:01;;;;;;;20.42;12.38;;;;;;;-3.02;100.00;99641.22;6297895;28;20048;-90
2021/12/27 02:30:07;;;;;;;16.85;10.10;;;;;;;-3.03;100.00;99637.88;6313297;28;20057;-90
2021/12/27 02:33:10;;;;;;;17.00;10.70;;;;;;;-3.03;100.00;99629.47;6302931;28;20132;-90
2021/12/27 02:36:13;;;;;;;18.98;11.23;;;;;;;-3.01;100.00;99630.19;6307075;28;20044;-90
2021/12/27 02:39:16;;;;;;;18.67;10.13;;;;;;;-3.01;100.00;99621.78;6274269;28;20037;-90
2021/12/27 02:42:19;;;;;;;19.40;10.65;;;;;;;-2.97;100.00;99631.75;6300807;28;20033;-90
2021/12/27 02:45:23;;;;;;;17.80;9.93;;;;;;;-3.00;100.00;99619.22;6315372;28;20048;-90
2021/12/27 02:48:28;;;;;;;17.60;10.68;;;;;;;-2.95;100.00;99617.34;6297106;28;20049;-90
2021/12/27 02:51:31;;;;;;;17.85;10.18;;;;;;;-2.97;100.00;99616.56;6314171;28;20035;-90
2021/12/27 02:54:33;;;;;;;18.00;10.52;;;;;;;-2.97;100.00;99610.69;6312653;28;20497;-90
2021/12/27 02:57:35;;;;;;;19.67;11.57;;;;;;;-2.99;100.00;99610.72;6306106;28;20097;-90
2021/12/27 03:00:50;;;;;;;15.93;10.15;;;;;;;-3.00;100.00;99603.22;6301334;28;20051;-90
2021/12/27 03:03:53;;;;;;;18.50;10.15;;;;;;;-2.96;100.00;99617.38;6307405;28;20342;-90
2021/12/27 03:06:55;;;;;;;22.80;10.88;;;;;;;-2.97;100.00;99615.75;6329360;28;20097;-90
2021/12/27 03:09:58;;;;;;;19.30;10.38;;;;;;;-2.98;100.00;99616.59;6322418;28;20123;-90
2021/12/27 03:13:02;;;;;;;18.23;10.45;;;;;;;-2.99;100.00;99608.19;6304751;28;20123;-90
2021/12/27 03:16:16;;;;;;;17.80;10.70;;;;;;;-2.94;100.00;99610.56;6289282;28;20215;-90
2021/12/27 03:19:18;;;;;;;16.27;9.95;;;;;;;-2.93;100.00;99607.13;6293746;28;20774;-90
2021/12/27 03:22:20;;;;;;;19.63;10.32;;;;;;;-2.91;100.00;99601.13;6317383;28;20489;-90
2021/12/27 03:25:25;;;;;;;20.98;11.02;;;;;;;-2.86;100.00;99603.47;6318119;28;20463;-90
2021/12/27 03:28:27;;;;;;;19.02;10.63;;;;;;;-2.83;100.00;99596.59;6316143;28;20745;-90
2021/12/27 03:31:30;;;;;;;18.90;10.38;;;;;;;-2.84;100.00;99597.47;6320182;28;20039;-90
2021/12/27 03:34:33;;;;;;;18.92;9.68;;;;;;;-2.84;100.00;99604.25;6317173;28;20476;-90
2021/12/27 03:37:37;;;;;;;20.45;11.55;;;;;;;-2.83;100.00;99586.47;6300506;28;20050;-90
2021/12/27 03:40:40;;;;;;;19.83;10.45;;;;;;;-2.83;100.00;99586.47;6318887;28;20493;-90
2021/12/27 03:43:42;;;;;;;22.67;10.23;;;;;;;-2.77;100.00;99587.13;6312950;28;20143;-90
2021/12/27 03:46:44;;;;;;;17.75;10.57;;;;;;;-2.82;100.00;99575.44;6314005;28;20498;-90
2021/12/27 03:49:46;;;;;;;17.35;9.93;;;;;;;-2.79;100.00;99571.16;6298619;28;20051;-90
2021/12/27 03:52:48;;;;;;;17.00;10.90;;;;;;;-2.79;100.00;99568.63;6317354;28;20040;-90
2021/12/27 03:55:50;;;;;;;22.70;10.48;;;;;;;-2.76;100.00;99568.50;6309633;28;20035;-90
2021/12/27 03:58:57;;;;;;;26.33;11.50;;;;;;;-2.75;100.00;99560.84;6310870;28;20036;-90
2021/12/27 04:01:59;;;;;;;18.52;10.55;;;;;;;-2.80;100.00;99560.22;6327576;28;20141;-90
2021/12/27 04:05:01;;;;;;;18.23;10.63;;;;;;;-2.80;100.00;99565.28;6321786;28;20131;-90
2021/12/27 04:08:09;;;;;;;19.17;11.27;;;;;;;-2.85;100.00;99560.38;6317215;28;20138;-90
2021/12/27 04:11:12;;;;;;;23.33;11.13;;;;;;;-2.86;100.00;99553.69;6315536;28;20126;-90
2021/12/27 04:14:14;;;;;;;17.92;10.55;;;;;;;-2.89;100.00;99560.56;6302110;28;20036;-90
2021/12/27 04:17:17;;;;;;;21.58;11.85;;;;;;;-2.88;100.00;99552.91;6318865;28;20043;-90
2021/12/27 04:20:21;;;;;;;17.50;11.43;;;;;;;-2.88;100.00;99554.59;6299366;28;20032;-90
2021/12/27 04:23:24;;;;;;;18.42;10.77;;;;;;;-2.90;100.00;99564.00;6314515;28;20059;-90
2021/12/27 04:26:26;;;;;;;25.42;11.65;;;;;;;-2.95;100.00;99551.50;6287133;28;20047;-90
2021/12/27 04:29:28;;;;;;;21.88;11.13;;;;;;;-2.97;100.00;99548.22;6276970;28;20051;-90
2021/12/27 04:32:30;;;;;;;18.92;10.25;;;;;;;-2.96;100.00;99541.44;6321148;28;20036;-90
2021/12/27 04:35:32;;;;;;;20.55;11.93;;;;;;;-2.93;100.00;99542.16;6319168;28;20027;-90
2021/12/27 04:38:34;;;;;;;20.27;11.10;;;;;;;-2.90;100.00;99539.50;6312540;28;20048;-90
2021/12/27 04:41:36;;;;;;;20.38;11.02;;;;;;;-2.92;100.00;99543.78;6286329;28;20390;-89
2021/12/27 04:44:39;;;;;;;18.27;10.98;;;;;;;-2.88;100.00;99539.41;6318548;28;20036;-90
2021/12/27 04:47:42;;;;;;;18.77;11.25;;;;;;;-2.89;100.00;99533.53;6317818;28;20036;-90
2021/12/27 04:50:44;;;;;;;23.40;11.65;;;;;;;-2.92;100.00;99526.06;6316807;28;20044;-90
2021/12/27 04:53:59;;;;;;;19.52;11.45;;;;;;;-2.94;100.00;99517.69;6298062;28;20048;-89
2021/12/27 04:57:01;;;;;;;16.85;11.45;;;;;;;-2.89;100.00;99518.34;6289968;28;20055;-90
2021/12/27 05:00:05;;;;;;;21.42;11.82;;;;;;;-2.91;100.00;99521.81;6293615;28;20215;-89
2021/12/27 05:03:07;;;;;;;18.10;11.15;;;;;;;-2.94;100.00;99509.28;6302741;28;20416;-90
2021/12/27 05:06:09;;;;;;;23.08;11.98;;;;;;;-2.89;100.00;99508.22;6298813;28;20075;-89
2021/12/27 05:09:12;;;;;;;23.30;11.40;;;;;;;-2.92;100.00;99505.81;6294619;28;20088;-89
2021/12/27 05:12:14;;;;;;;16.95;10.80;;;;;;;-2.93;100.00;99514.31;6285892;28;20044;-89
2021/12/27 05:15:16;;;;;;;18.67;10.95;;;;;;;-2.93;100.00;99511.78;6305513;28;20040;-89
2021/12/27 05:18:18;;;;;;;25.77;12.65;;;;;;;-2.92;100.00;99515.13;6310893;28;20032;-89
2021/12/27 05:21:20;;;;;;;19.90;11.43;;;;;;;-2.90;100.00;99504.03;6291378;28;20044;-89
2021/12/27 05:24:22;;;;;;;19.48;11.35;;;;;;;-2.89;100.00;99503.16;6299751;28;20037;-90
2021/12/27 05:27:25;;;;;;;21.40;12.50;;;;;;;-2.90;100.00;99496.44;6311095;28;20964;-89
2021/12/27 05:30:48;;;;;;;21.42;11.80;;;;;;;-2.89;100.00;99508.22;6305058;28;20529;-90
2021/12/27 05:34:03;;;;;;;23.02;12.15;;;;;;;-2.85;100.00;99503.88;6304809;28;20537;-90
2021/12/27 05:37:05;;;;;;;17.30;10.63;;;;;;;-2.83;100.00;99497.84;6302475;28;20047;-90
2021/12/27 05:40:13;;;;;;;20.83;11.38;;;;;;;-2.78;100.00;99501.88;6301590;28;20172;-90
2021/12/27 05:43:15;;;;;;;19.70;11.50;;;;;;;-2.80;100.00;99496.09;6300747;28;20048;-90
2021/12/27 05:46:17;;;;;;;18.70;11.45;;;;;;;-2.80;100.00;99501.16;6289399;28;20226;-89
2021/12/27 05:49:19;;;;;;;20.38;11.95;;;;;;;-2.79;100.00;99487.59;6308326;28;20047;-89
2021/12/27 05:52:21;;;;;;;20.73;10.93;;;;;;;-2.79;100.00;99485.88;6303489;28;20507;-90
2021/12/27 05:55:24;;;;;;;21.85;12.10;;;;;;;-2.78;100.00;99484.16;6299365;28;20052;-89
2021/12/27 05:58:26;;;;;;;20.17;11.35;;;;;;;-2.75;100.00;99482.34;6305759;28;20203;-90
2021/12/27 06:01:28;;;;;;;20.60;12.13;;;;;;;-2.78;100.00;99474.03;6278252;28;20485;-90
2021/12/27 06:04:44;;;;;;;18.88;11.38;;;;;;;-2.83;100.00;99482.66;6309827;28;20305;-89
2021/12/27 06:07:46;;;;;;;19.25;11.45;;;;;;;-2.90;100.00;99476.19;6307238;28;20040;-90
2021/12/27 06:10:48;;;;;;;21.70;12.32;;;;;;;-2.95;100.00;99482.34;6306579;28;20473;-90
2021/12/27 06:13:50;;;;;;;21.73;11.80;;;;;;;-2.96;100.00;99480.66;6300932;28;20413;-89
2021/12/27 06:16:52;;;;;;;19.90;11.90;;;;;;;-3.07;100.00;99471.81;6310908;28;20044;-90
2021/12/27 06:19:54;;;;;;;22.08;11.20;;;;;;;-3.10;100.00;99466.06;6306328;28;20580;-90
2021/12/27 06:22:58;;;;;;;20.48;11.48;;;;;;;-3.00;100.00;99464.78;6286665;28;20059;-90
2021/12/27 06:26:00;;;;;;;17.70;10.80;;;;;;;-2.94;100.00;99462.00;6311785;28;20185;-90
2021/12/27 06:29:02;;;;;;;19.02;11.63;;;;;;;-2.94;100.00;99449.34;6304259;28;20039;-90
2021/12/27 06:32:04;;;;;;;19.95;12.18;;;;;;;-2.92;100.00;99457.69;6299481;28;20036;-90
2021/12/27 06:35:08;;;;;;;21.88;12.60;;;;;;;-2.87;100.00;99449.94;6299570;28;20063;-90
2021/12/27 06:38:11;;;;;;;21.83;11.35;;;;;;;-2.85;100.00;99460.81;6302627;28;20048;-90
2021/12/27 06:41:13;;;;;;;20.75;12.07;;;;;;;-2.83;100.00;99457.34;6293756;28;20032;-90
2021/12/27 06:44:15;;;;;;;18.65;12.02;;;;;;;-2.84;100.00;99450.59;6306775;28;20131;-90
2021/12/27 06:47:17;;;;;;;18.75;10.93;;;;;;;-2.89;100.00;99447.44;6310113;28;20047;-90
2021/12/27 06:50:19;;;;;;;18.88;11.27;;;;;;;-2.89;100.00;99451.69;6302645;28;20036;-89
2021/12/27 06:53:21;;;;;;;20.67;11.20;;;;;;;-2.94;100.00;99459.47;6293187;28;20798;-90
2021/12/27 06:56:23;;;;;;;21.60;11.50;;;;;;;-2.96;100.00;99461.22;6303239;28;20041;-89
2021/12/27 06:59:38;;;;;;;23.55;12.57;;;;;;;-2.92;100.00;99457.69;6305937;28;20540;-90
2021/12/27 07:02:41;;;;;;;20.25;11.80;;;;;;;-2.92;100.00;99452.63;6308745;28;20036;-90
2021/12/27 07:05:43;;;;;;;21.48;12.30;;;;;;;-2.91;100.00;99454.28;6309217;28;20063;-90
2021/12/27 07:08:47;;;;;;;19.60;12.15;;;;;;;-2.88;100.00;99449.09;6285354;28;20049;-90
2021/12/27 07:11:49;;;;;;;21.20;12.50;;;;;;;-2.86;100.00;99451.56;6309713;28;20132;-90
2021/12/27 07:14:53;;;;;;;20.48;11.80;;;;;;;-2.85;100.00;99448.16;6310680;28;20047;-90
2021/12/27 07:17:56;;;;;;;21.00;12.10;;;;;;;-2.85;100.00;99446.44;6310731;28;20501;-90
2021/12/27 07:20:58;;;;;;;20.02;11.65;;;;;;;-2.76;100.00;99462.13;6286951;28;20043;-90
2021/12/27 07:24:00;;;;;;;21.08;12.05;;;;;;;-2.70;100.00;99456.81;6303293;28;20085;-90
2021/12/27 07:27:03;;;;;;;20.63;12.23;;;;;;;-2.68;100.00;99455.88;6282562;28;20422;-90
2021/12/27 07:30:07;;;;;;;20.90;11.63;;;;;;;-2.64;100.00;99457.38;6298689;28;20509;-90
2021/12/27 07:33:10;;;;;;;20.42;11.98;;;;;;;-2.64;100.00;99444.72;6296104;28;20059;-90
2021/12/27 07:36:12;;;;;;;18.17;12.00;;;;;;;-2.62;100.00;99454.78;6278795;28;20085;-90
2021/12/27 07:39:15;;;;;;;19.83;11.88;;;;;;;-2.61;100.00;99452.19;6275984;28;20044;-90
2021/12/27 07:42:18;;;;;;;21.95;12.85;;;;;;;-2.55;100.00;99456.19;6303755;28;20036;-90
2021/12/27 07:45:20;;;;;;;20.35;12.30;;;;;;;-2.54;100.00;99452.75;6301776;28;20071;-90
2021/12/27 07:48:23;;;;;;;21.83;12.95;;;;;;;-2.58;100.00;99445.34;6309990;28;20040;-90
2021/12/27 07:51:25;;;;;;;19.73;11.60;;;;;;;-2.54;100.00;99444.31;6309191;28;20120;-90
2021/12/27 07:54:27;;;;;;;23.33;13.00;;;;;;;-2.50;100.00;99449.19;6304557;28;20052;-90
2021/12/27 07:57:30;;;;;;;23.02;12.57;;;;;;;-2.40;100.00;99460.59;6297266;28;20044;-90
2021/12/27 08:00:36;;;;;;;23.77;12.75;;;;;;;-2.35;100.00;99459.56;6293879;28;20058;-90
2021/12/27 08:03:38;;;;;;;21.25;12.90;;;;;;;-2.29;100.00;99451.69;6306342;28;20165;-90
2021/12/27 08:06:40;;;;;;;24.08;13.23;;;;;;;-2.24;100.00;99449.78;6286276;28;20051;-90
2021/12/27 08:09:42;;;;;;;25.58;13.15;;;;;;;-2.19;100.00;99451.25;6309115;28;20055;-90
2021/12/27 08:12:45;;;;;;;22.83;12.50;;;;;;;-2.17;100.00;99451.16;6296366;28;20165;-90
2021/12/27 08:15:47;;;;;;;20.63;12.70;;;;;;;-2.15;100.00;99454.47;6282467;28;20509;-90
2021/12/27 08:18:59;;;;;;;21.38;12.27;;;;;;;-2.13;100.00;99452.69;6306473;28;20508;-90
2021/12/27 08:22:02;;;;;;;20.95;12.85;;;;;;;-2.09;100.00;99449.09;6314879;28;20556;-90
2021/12/27 08:25:07;;;;;;;22.92;13.63;;;;;;;-2.05;100.00;99450.63;6310088;28;20066;-90
2021/12/27 08:28:10;;;;;;;22.05;12.32;;;;;;;-2.01;100.00;99454.69;6322556;28;20063;-90
2021/12/27 08:31:15;;;;;;;23.65;13.13;;;;;;;-1.90;100.00;99445.75;6318891;28;20398;-90
2021/12/27 08:34:17;;;;;;;22.58;12.70;;;;;;;-1.87;100.00;99448.16;6309962;28;20047;-90
2021/12/27 08:37:24;;;;;;;24.38;13.82;;;;;;;-1.80;100.00;99436.84;6309634;28;20503;-90
2021/12/27 08:40:26;;;;;;;20.38;12.77;;;;;;;-1.72;100.00;99434.75;6297134;28;20054;-90
2021/12/27 08:43:28;;;;;;;23.23;13.18;;;;;;;-1.57;100.00;99433.22;6304896;28;20036;-90
2021/12/27 08:46:32;;;;;;;22.20;13.85;;;;;;;-1.45;100.00;99429.31;6304621;28;20047;-90
2021/12/27 08:49:34;;;;;;;24.10;13.43;;;;;;;-1.41;100.00;99428.28;6320791;28;20040;-86
2021/12/27 08:52:56;;;;;;;23.45;13.02;;;;;;;-1.34;100.00;99427.09;6316236;28;20071;-86
2021/12/27 08:55:58;;;;;;;21.48;13.40;;;;;;;-1.33;100.00;99432.09;6339076;28;20067;-86
2021/12/27 08:59:07;;;;;;;25.83;14.50;;;;;;;-1.31;100.00;99421.88;6334119;28;20086;-86
2021/12/27 09:02:15;;;;;;;24.90;14.18;;;;;;;-1.30;100.00;99429.38;6325932;28;20050;-86
2021/12/27 09:05:17;;;;;;;23.92;14.20;;;;;;;-1.24;100.00;99427.44;6332249;28;20046;-86
2021/12/27 09:08:19;;;;;;;22.08;13.20;;;;;;;-1.24;100.00;99430.84;6319349;28;20072;-86
2021/12/27 09:11:21;;;;;;;23.17;13.60;;;;;;;-1.19;100.00;99433.97;6311268;28;20062;-87
2021/12/27 09:14:23;;;;;;;24.55;14.63;;;;;;;-1.19;100.00;99435.66;6344604;28;20047;-87
2021/12/27 09:17:24;;;;;;;27.55;14.70;;;;;;;-1.21;100.00;99427.31;6312343;28;20416;-88
2021/12/27 09:20:28;;;;;;;24.42;13.75;;;;;;;-1.20;100.00;99421.34;6336384;28;20044;-86
2021/12/27 16:24:07;;;;;;;44.87;20.43;;;;;;;-0.24;100.00;99235.13;6314589;27;1914872;-88
2021/12/27 16:27:12;;;;;;;50.00;21.63;;;;;;;-0.22;100.00;99240.97;6353805;28;20035;-87
2021/12/27 16:30:16;;;;;;;45.88;21.05;;;;;;;-0.19;100.00;99245.06;6351719;28;20048;-86
2021/12/27 16:33:22;;;;;;;40.65;20.48;;;;;;;-0.14;100.00;99243.09;6374464;28;20104;-86
2021/12/27 16:36:30;;;;;;;39.40;19.83;;;;;;;-0.10;100.00;99247.06;6329577;28;20047;-86
2021/12/27 16:39:33;;;;;;;39.05;19.25;;;;;;;-0.11;100.00;99242.91;6366451;28;20047;-87
2021/12/27 16:42:35;;;;;;;40.38;20.33;;;;;;;-0.10;100.00;99244.53;6370451;28;20070;-87
2021/12/27 16:45:38;;;;;;;30.90;17.10;;;;;;;-0.12;100.00;99242.09;6355616;28;20048;-87
2021/12/27 16:48:40;;;;;;;36.13;18.63;;;;;;;-0.13;100.00;99239.63;6360192;28;20040;-87
2021/12/27 16:51:43;;;;;;;31.20;16.75;;;;;;;-0.14;100.00;99228.63;6347013;28;20052;-87
2021/12/27 16:54:46;;;;;;;34.55;16.70;;;;;;;-0.12;100.00;99231.09;6353816;28;20123;-87
2021/12/27 16:57:51;;;;;;;35.13;17.48;;;;;;;-0.10;100.00;99225.03;6361512;28;20047;-87
2021/12/27 17:00:55;;;;;;;31.15;16.38;;;;;;;-0.04;100.00;99239.13;6343114;28;20049;-87
2021/12/27 17:03:58;;;;;;;28.50;15.80;;;;;;;0.02;100.00;99235.41;6349550;28;20652;-86
2021/12/27 17:07:01;;;;;;;31.70;16.63;;;;;;;0.11;100.00;99243.34;6345644;28;20055;-87
2021/12/27 17:10:03;;;;;;;31.25;17.05;;;;;;;0.16;100.00;99243.88;6348545;28;20515;-87
2021/12/27 17:13:07;;;;;;;30.23;16.60;;;;;;;0.21;100.00;99246.19;6365914;28;20032;-87
2021/12/27 17:16:09;;;;;;;28.17;16.05;;;;;;;0.26;100.00;99236.56;6334144;28;20043;-87
2021/12/27 17:19:10;;;;;;;26.77;14.43;;;;;;;0.30;100.00;99235.47;6367621;28;20058;-87
2021/12/27 17:22:16;;;;;;;29.00;15.88;;;;;;;0.38;100.00;99235.03;6370527;28;20051;-87
2021/12/27 17:25:18;;;;;;;29.13;15.07;;;;;;;0.39;100.00;99240.03;6344893;28;20109;-87
2021/12/27 17:28:20;;;;;;;29.80;15.25;;;;;;;0.36;100.00;99229.22;6361926;28;20044;-87
2021/12/27 17:31:22;;;;;;;27.67;14.63;;;;;;;0.35;100.00;99230.94;6360414;28;20043;-87
2021/12/27 17:34:24;;;;;;;27.02;15.82;;;;;;;0.36;100.00;99232.56;6352218;28;20040;-87
2021/12/27 17:37:26;;;;;;;30.30;16.08;;;;;;;0.42;100.00;99228.84;6324820;28;20104;-87
2021/12/27 17:40:28;;;;;;;27.02;14.73;;;;;;;0.48;100.00;99236.16;6338187;28;20982;-87
2021/12/27 17:43:30;;;;;;;27.38;14.65;;;;;;;0.53;100.00;99229.06;6327923;28;20243;-87
2021/12/27 17:46:32;;;;;;;24.00;14.23;;;;;;;0.61;100.00;99228.59;6327946;28;20040;-87
2021/12/27 17:49:36;;;;;;;27.25;14.52;;;;;;;0.60;100.00;99226.97;6352012;28;20098;-87
2021/12/27 17:52:38;;;;;;;26.67;13.80;;;;;;;0.57;100.00;99219.50;6342606;28;20052;-87
2021/12/27 17:55:40;;;;;;;23.90;13.93;;;;;;;0.51;100.00;99217.31;6339292;28;20044;-87
2021/12/27 17:58:47;;;;;;;24.10;14.40;;;;;;;0.46;100.00;99215.03;6344031;28;20038;-87
2021/12/27 18:01:50;;;;;;;26.42;14.10;;;;;;;0.42;100.00;99208.47;6322285;28;20104;-87
2021/12/27 18:04:56;;;;;;;22.67;13.32;;;;;;;0.49;100.00;99214.03;6343385;28;20043;-87
2021/12/27 18:07:58;;;;;;;23.77;14.02;;;;;;;0.46;100.00;99212.50;6332902;28;20040;-87
2021/12/27 18:11:00;;;;;;;21.63;13.50;;;;;;;0.40;100.00;99213.69;6340476;28;20177;-87
2021/12/27 18:14:02;;;;;;;23.60;13.50;;;;;;;0.36;100.00;99211.41;6347268;28;20043;-87
2021/12/27 18:17:11;;;;;;;30.42;15.68;;;;;;;0.33;100.00;99211.59;6324876;28;20044;-87
2021/12/27 18:20:19;;;;;;;24.08;15.23;;;;;;;0.30;100.00;99215.13;6312434;28;20756;-87
2021/12/27 18:23:21;;;;;;;23.95;15.70;;;;;;;0.30;100.00;99209.19;6332600;28;20067;-87
2021/12/27 18:26:23;;;;;;;24.80;14.23;;;;;;;0.28;100.00;99219.47;6335122;28;20116;-87
2021/12/27 18:29:33;;;;;;;26.17;15.82;;;;;;;0.23;100.00;99213.03;6344901;28;20093;-87
2021/12/27 18:32:35;;;;;;;27.17;15.50;;;;;;;0.23;100.00;99210.47;6316086;28;20675;-87
2021/12/27 18:35:38;;;;;;;26.65;15.40;;;;;;;0.20;100.00;99207.19;6303637;28;20047;-87
2021/12/27 18:38:45;;;;;;;24.55;13.90;;;;;;;0.26;100.00;99211.09;6332846;28;20484;-87
2021/12/27 18:41:48;;;;;;;24.15;15.43;;;;;;;0.24;100.00;99201.94;6342484;28;20044;-87
2021/12/27 18:44:55;;;;;;;24.80;14.95;;;;;;;0.25;100.00;99204.41;6331383;28;20047;-87
2021/12/27 18:47:57;;;;;;;27.05;14.95;;;;;;;0.19;100.00;99205.53;6311469;28;20381;-87
2021/12/27 18:50:59;;;;;;;31.15;14.15;;;;;;;0.12;100.00;99195.81;6327437;28;20370;-87
2021/12/27 18:54:01;;;;;;;23.98;12.68;;;;;;;0.07;100.00;99196.06;6335736;28;20062;-87
2021/12/27 18:57:05;;;;;;;21.50;12.23;;;;;;;0.15;100.00;99188.84;6321366;28;20032;-87
2021/12/27 19:00:10;;;;;;;24.90;12.63;;;;;;;0.33;100.00;99196.31;6307704;28;20055;-87
2021/12/27 19:03:12;;;;;;;22.13;12.77;;;;;;;0.28;100.00;99201.66;6328267;28;20054;-87
2021/12/27 19:06:14;;;;;;;20.85;12.05;;;;;;;0.31;100.00;99198.13;6342945;28;20218;-87
2021/12/27 19:09:16;;;;;;;21.55;12.77;;;;;;;0.29;100.00;99184.66;6323944;28;20055;-87
2021/12/27 19:12:18;;;;;;;23.90;13.18;;;;;;;0.25;100.00;99181.50;6325562;28;20050;-87
2021/12/27 19:15:21;;;;;;;19.95;12.85;;;;;;;0.13;100.00;99177.13;6321848;28;20039;-87
2021/12/27 19:18:29;;;;;;;23.65;13.02;;;;;;;0.09;100.00;99173.91;6321270;28;20046;-87
2021/12/27 19:21:31;;;;;;;23.27;11.75;;;;;;;-0.03;100.00;99177.16;6319712;28;20039;-87
2021/12/27 19:24:33;;;;;;;25.30;13.40;;;;;;;-0.09;100.00;99174.97;6324667;28;20051;-87
2021/12/27 19:27:35;;;;;;;24.55;13.68;;;;;;;-0.21;100.00;99168.84;6337417;28;20044;-87
2021/12/27 19:30:38;;;;;;;24.17;12.75;;;;;;;-0.32;100.00;99174.53;6310252;28;20504;-87
2021/12/27 19:33:41;;;;;;;22.50;12.95;;;;;;;-0.30;100.00;99170.19;6321378;28;20032;-87
2021/12/27 19:36:44;;;;;;;26.73;15.18;;;;;;;-0.26;100.00;99169.09;6344272;28;20035;-87
2021/12/27 19:39:46;;;;;;;25.15;13.63;;;;;;;-0.22;100.00;99162.13;6324376;28;20129;-87
2021/12/27 19:42:48;;;;;;;27.50;13.95;;;;;;;-0.16;100.00;99164.31;6341428;28;20036;-87
2021/12/27 19:46:03;;;;;;;22.23;13.23;;;;;;;-0.12;100.00;99168.34;6325125;28;20146;-87
2021/12/27 19:49:23;;;;;;;26.95;13.77;;;;;;;-0.16;100.00;99163.50;6334826;28;20445;-87
2021/12/27 19:52:26;;;;;;;;;;;;;;;-0.20;100.00;99162.03;6341164;28;20049;-87
2021/12/27 19:55:28;;;;;;;23.00;13.07;;;;;;;-0.17;100.00;99159.31;6332585;28;20026;-87
2021/12/27 20:03:10;;;;;;;20.70;12.00;;;;;;;-0.11;100.00;99151.34;6334629;28;20128;-87
2021/12/27 20:06:12;;;;;;;24.27;13.40;;;;;;;-0.04;100.00;99150.09;6314741;28;20108;-87
2021/12/27 20:09:14;;;;;;;24.90;13.57;;;;;;;0.04;100.00;99139.47;6316915;28;20047;-87
2021/12/27 20:12:23;;;;;;;28.75;13.95;;;;;;;0.10;100.00;99137.41;6336245;28;20047;-87
2021/12/27 20:15:30;;;;;;;23.98;13.98;;;;;;;0.14;100.00;99130.41;6306951;28;20123;-87
2021/12/27 20:18:32;;;;;;;22.98;12.98;;;;;;;0.28;100.00;99132.16;6335690;28;20051;-87
2021/12/27 20:21:34;;;;;;;22.45;12.05;;;;;;;0.45;100.00;99131.13;6313449;28;20035;-87
2021/12/27 20:24:36;;;;;;;23.15;13.85;;;;;;;0.64;100.00;99137.56;6315754;28;20051;-87
2021/12/27 20:27:39;;;;;;;19.38;10.85;;;;;;;0.77;100.00;99131.72;6333380;28;20409;-87
2021/12/27 20:30:42;;;;;;;24.20;11.93;;;;;;;0.79;100.00;99133.25;6336867;28;20067;-87
2021/12/27 20:33:44;;;;;;;23.23;12.40;;;;;;;0.86;100.00;99131.97;6318333;28;20605;-87
2021/12/27 20:36:46;;;;;;;21.33;11.77;;;;;;;0.89;100.00;99128.44;6330111;28;20052;-87
2021/12/27 20:39:48;;;;;;;24.08;13.20;;;;;;;0.93;100.00;99127.34;6328860;28;20121;-87
2021/12/27 20:43:05;;;;;;;25.17;12.45;;;;;;;1.03;100.00;99132.69;6318979;28;20043;-87
2021/12/27 20:46:11;;;;;;;25.80;12.50;;;;;;;1.10;100.00;99130.59;6317522;28;20095;-88
2021/12/27 20:49:13;;;;;;;22.05;11.57;;;;;;;1.15;100.00;99126.81;6344388;28;20043;-87
2021/12/27 20:52:16;;;;;;;18.73;11.40;;;;;;;1.09;100.00;99129.75;6313644;28;20073;-87
2021/12/27 20:55:17;;;;;;;20.10;12.18;;;;;;;1.11;100.00;99129.66;6335346;28;20048;-87
2021/12/27 20:58:24;;;;;;;24.27;11.93;;;;;;;1.07;100.00;99129.84;6333895;28;20042;-87
2021/12/27 21:01:27;;;;;;;22.55;12.27;;;;;;;1.05;100.00;99125.78;6321126;28;20051;-87
2021/12/27 21:04:33;;;;;;;20.42;11.73;;;;;;;1.10;100.00;99130.59;6307445;28;20056;-87
2021/12/27 21:07:36;;;;;;;22.15;13.10;;;;;;;1.05;100.00;99134.22;6304185;28;20073;-87